Dryden, Dryden Regional Airport (CYHD)

NameDryden Regional Airport
CityDryden
CountryCanada
ICAOCYHD
IATAYHD
Altitude413 m
CoordinatesGoogle Map
Live Air TrafficLiveATC.net
METARCYHD 201200Z AUTO 34012G22KT 310V010 9SM BKN040 OVC049 M05/M11 A2999 RMK SLP181
2018-10-20 12:00:00 Wind: North-Northwest (340°) 6.17 m/s - Visibility: 14484.06 m - Temperature: -5 °C - Dew point: -11 °C - Humidity: 63.2% - Pressure: 1015.58 hPa
Statistics

The table below shows the detailed information of all flights to/from Dryden, Dryden Regional Airport (CYHD).